Terminal Aerodrome Forecast
Issued by NWS

Home | Current Version | Previous Version | Text Only | Print | Product List | Glossary On
Versions: 1 2 3 4 5 6 7 8 9 10 11 12 13 14 15 16 17 18 19 20 21 22 23 24 25 26 27 28 29 30 31 32 33 34 35 36 37 38 39 40 41 42 43 44 45 46 47 48 49 50
000
FTAK31 PANC 242332
TAFASD
TAF
PASD 242332Z 2500/2524 16015KT P6SM VCSH BKN025 OVC070
     FM250200 15015KT P6SM -RA OVC020
     FM250600 15015KT 4SM -RA BR OVC015 WS020/11035KT
     FM251400 VRB05KT 6SM -RA BR BKN010 OVC024
     FM252000 VRB05KT P6SM VCSH BKN018
      AMD LTD TO CLD VIS AND WIND=

USA.gov is the U.S. government's official web portal to all federal, state and local government web resources and services.